Chu, Lee
United StatesManBorn 19512008 – 2026Runner id 80231
Events
39
2008 – 2026
Best pace
9.728
km/h · 2013
Best finish
3rd
of 26 · 2024
Distance raced
2,985
km · splits not double-counted
Pace over time
km/h · higher is faster
Pace over time: 39 races from 2008 to 2026, ranging from 4.35 to 12.06 kilometres per hour, where higher is faster. A second, age-graded series is drawn above it; the gap between the two is the age credit.
- Actual pace
- Age-graded pace
Results
| Date | Event | Distance | Result | Pace km/h | Placing |
|---|---|---|---|---|---|
| 2008-01-12 | Bridle Trails Winter Running FestivalUnited States | 50km | 6:04:05 h | 8.240 | 33/44 |
| 2008-05-17 | Watershed Preserve 12 Hr Trail RaceUnited States | 12h | 87.129 km | 7.261 | 14/53 |
| 2009-01-10 | Bridle Trails Winter Running FestivalUnited States | 50km | 6:20:38 h | 7.882 | 35/50 |
| 2009-04-19 | 50mi | 8:31:18 h | 9.443 | 22/48 | |
| 2009-05-16 | Watershed Preserve 12 Hr Trail RaceUnited States | 12h | 93.454 km | 7.788 | 14/66 |
| 2009-08-22 | 100mi | 24:16:33 h | 6.629 | 29/72 | |
| 2010-04-09 | 50mi | 11:03:00 h | 7.282 | 14/26 | |
| 2010-07-31 | 50mi | 12:07:01 h | 6.641 | 155/194 | |
| 2011-04-16 | 100km | 16:38:00 h | 6.012 | 10/14 | |
| 2012-04-21 | 50mi | 11:35:00 h | 6.947 | 6/9 | |
| 2012-05-19 | 12h | 85.963 km | 7.164 | 20/60 | |
| 2012-07-28 | 50mi | 12:18:05 h | 6.541 | 238/275 | |
| 2013-01-13 | Bridle Trails Winter Running FestivalUnited States | 50km | 5:08:24 h | 9.728 | 19/55 |
| 2013-02-10 | Fishline 50K RunUnited States | 50km | 6:25:33 h | 7.781 | 7/17 |
| 2013-04-13 | Lumberjack Endurance 50 Mile RunUnited States | 50mi | 10:53:00 h | 7.394 | 4/11 |
| 2013-07-27 | 50mi | 12:36:24 h | 6.383 | 242/286 | |
| 2013-08-24 | 100mi | 25:18:55 h | 6.357 | 21/43 | |
| 2014-01-11 | Bridle Trails Winter Running FestivalUnited States | 50km | 6:10:38 h | 8.094 | 16/38 |
| 2014-02-09 | Fishline 50K RunUnited States | 50km | 6:35:20 h | 7.589 | 5/7 |
| 2014-04-12 | Lumberjack Endurance 50 Mile RunUnited States | 50mi | 10:54:00 h | 7.382 | 5/19 |
| 2014-07-26 | 50mi | 12:13:30 h | 6.582 | 180/248 | |
| 2015-07-25 | 50mi | 13:04:06 h | 6.157 | 238/276 | |
| 2016-01-09 | 50km | 5:33:09 h | 9.005 | 34/73 | |
| 2016-02-21 | Fishline 50K RunUnited States | 50km | 6:52:20 h | 7.276 | 15/19 |
| 2016-05-30 | 50km | 6:03:58 h | 8.243 | 48/100 | |
| 2017-02-17 | 50km | 6:53:28 h | 7.256 | 78/113 | |
| 2017-09-23 | 50km | 8:46:20 h | 5.700 | 36/44 | |
| 2018-04-14 | 50mi | 12:35:51 h | 6.388 | 19/17 | |
| 2018-05-28 | 50km | 5:55:15 h | 8.445 | 68/142 | |
| 2018-07-14 | 50mi | 11:15:21 h | 7.149 | 95/135 | |
| 2018-08-17 | 100mi | 28:23:40 h | 5.668 | 33/44 | |
| 2019-07-27 | 50mi | 13:07:57 h | 6.127 | 163/187 | |
| 2020-01-11 | 50km | 6:14:39 h | 8.007 | 33/52 | |
| 2021-05-22 | 50km | 10:20:00 h | 4.839 | 53/58 | |
| 2022-05-14 | 50km | 11:30:03 h | 4.348 | 36/38 | |
| 2022-06-11 | 50mi | 16:15:00 h | 4.952 | 17/17 | |
| 2022-08-13 | 12h | 72.871 km | 6.073 | 4/8 | |
| 2024-08-10 | 24h | 122.310 km | 5.096 | 3/26 | |
| 2026-08-08 | 12h | 64.212 km | 5.351 | 19/31 |